Time;durP1;ratioP1;P1;durP2;ratioP2;P2;SDS_P1;SDS_P2;PMS_P1;PMS_P2;Temp;Humidity;BMP_temperature;BMP_pressure;BME280_temperature;BME280_humidity;BME280_pressure;Samples;Min_cycle;Max_cycle;Signal;HPM_P1;HPM_P2
2022/03/31 00:02:04;;;;;;;4.03;2.55;;;;;;;0.02;100.00;100522.50;5075523;28;20041;-71
2022/03/31 00:04:30;;;;;;;2.95;2.20;;;;;;;0.03;100.00;100518.13;5057914;28;20580;-72
2022/03/31 00:06:55;;;;;;;3.65;2.50;;;;;;;0.02;100.00;100522.50;5075429;28;20393;-73
2022/03/31 00:09:20;;;;;;;2.80;2.28;;;;;;;0.03;100.00;100523.34;5075637;28;20488;-72
2022/03/31 00:11:46;;;;;;;2.95;2.30;;;;;;;0.04;100.00;100517.19;5057432;28;20036;-72
2022/03/31 00:14:11;;;;;;;5.22;2.40;;;;;;;0.03;100.00;100524.22;5057553;28;20480;-72
2022/03/31 00:16:36;;;;;;;3.88;2.40;;;;;;;0.05;100.00;100516.28;5057144;28;20029;-71
2022/03/31 00:19:02;;;;;;;4.18;2.30;;;;;;;0.06;100.00;100513.59;5075063;28;20033;-71
2022/03/31 00:21:27;;;;;;;2.70;1.88;;;;;;;0.06;100.00;100508.34;5075676;28;20429;-71
2022/03/31 00:23:52;;;;;;;2.50;2.00;;;;;;;0.06;100.00;100513.59;5075029;28;20032;-71
2022/03/31 00:26:18;;;;;;;5.03;2.30;;;;;;;0.01;100.00;100510.34;5075411;28;20029;-71
2022/03/31 00:28:43;;;;;;;3.50;2.17;;;;;;;-0.02;100.00;100505.28;5075311;28;20043;-71
2022/03/31 00:31:08;;;;;;;3.53;2.15;;;;;;;-0.08;100.00;100501.19;5057645;28;20037;-71
2022/03/31 00:33:34;;;;;;;4.43;2.15;;;;;;;-0.10;100.00;100507.47;5075607;28;20358;-71
2022/03/31 00:36:00;;;;;;;5.65;2.10;;;;;;;-0.12;100.00;100501.44;5057082;28;20052;-71
2022/03/31 00:38:26;;;;;;;2.15;1.92;;;;;;;-0.14;100.00;100508.53;5074918;28;20064;-72
2022/03/31 00:40:51;;;;;;;3.13;2.30;;;;;;;-0.18;100.00;100505.22;5075064;28;20036;-72
2022/03/31 00:43:17;;;;;;;2.63;2.03;;;;;;;-0.19;100.00;100509.59;5074933;28;20068;-71
2022/03/31 00:45:48;;;;;;;3.10;2.20;;;;;;;-0.20;100.00;100509.69;5075084;28;20108;-71
2022/03/31 00:48:18;;;;;;;4.25;2.33;;;;;;;-0.21;100.00;100508.84;5057988;28;20033;-71
2022/03/31 00:50:45;;;;;;;2.78;2.38;;;;;;;-0.21;100.00;100501.00;5074954;28;20028;-71
2022/03/31 00:53:11;;;;;;;4.10;2.55;;;;;;;-0.21;100.00;100500.13;5074882;28;20122;-72
2022/03/31 00:55:37;;;;;;;2.28;2.08;;;;;;;-0.22;100.00;100501.09;5074686;28;20076;-71
2022/03/31 00:58:04;;;;;;;4.03;2.60;;;;;;;-0.22;100.00;100501.09;5074753;28;20059;-71
2022/03/31 01:00:30;;;;;;;5.53;2.13;;;;;;;-0.23;100.00;100494.97;5074331;28;20037;-72
2022/03/31 01:02:55;;;;;;;4.43;2.50;;;;;;;-0.24;100.00;100495.94;5074254;28;20040;-71
2022/03/31 01:05:21;;;;;;;3.67;2.17;;;;;;;-0.26;100.00;100489.06;5074568;28;20028;-71
2022/03/31 01:07:46;;;;;;;4.57;2.63;;;;;;;-0.27;100.00;100492.59;5074704;28;20432;-71
2022/03/31 01:10:13;;;;;;;5.78;2.97;;;;;;;-0.31;100.00;100485.84;5056268;28;20389;-71
2022/03/31 01:12:39;;;;;;;3.50;2.58;;;;;;;-0.31;100.00;100485.84;5074327;28;20044;-71
2022/03/31 01:15:07;;;;;;;3.72;2.75;;;;;;;-0.36;100.00;100481.72;5074668;28;20370;-72
2022/03/31 01:17:38;;;;;;;2.72;2.42;;;;;;;-0.37;100.00;100480.00;5056348;28;20025;-72
2022/03/31 01:20:05;;;;;;;5.07;3.10;;;;;;;-0.37;100.00;100477.41;5074176;28;20044;-72
2022/03/31 01:22:32;;;;;;;3.97;2.97;;;;;;;-0.37;100.00;100484.41;5074663;28;20457;-72
2022/03/31 01:24:58;;;;;;;4.25;3.20;;;;;;;-0.34;100.00;100480.75;5074382;28;20432;-72
2022/03/31 01:27:25;;;;;;;3.35;3.00;;;;;;;-0.33;100.00;100475.47;5073891;28;20063;-72
2022/03/31 01:29:51;;;;;;;3.97;2.95;;;;;;;-0.31;100.00;100470.16;5074266;28;20028;-72
2022/03/31 01:32:16;;;;;;;5.35;3.60;;;;;;;-0.29;100.00;100468.31;5073875;28;20090;-71
2022/03/31 01:34:41;;;;;;;4.90;3.35;;;;;;;-0.30;100.00;100462.25;5056079;28;20032;-72
2022/03/31 01:37:07;;;;;;;5.95;3.50;;;;;;;-0.29;100.00;100460.47;5074388;28;20033;-72
2022/03/31 01:39:33;;;;;;;3.80;3.35;;;;;;;-0.30;100.00;100467.47;5073794;28;20119;-72
2022/03/31 01:41:58;;;;;;;3.75;3.15;;;;;;;-0.30;100.00;100469.22;5074016;28;20040;-72
2022/03/31 01:44:24;;;;;;;3.42;3.13;;;;;;;-0.29;100.00;100466.53;5073401;28;20036;-72
2022/03/31 01:46:49;;;;;;;5.45;3.50;;;;;;;-0.29;100.00;100463.09;5073602;28;20031;-72
2022/03/31 01:49:14;;;;;;;4.40;3.08;;;;;;;-0.29;100.00;100457.88;5073635;28;20071;-71
2022/03/31 01:51:40;;;;;;;3.65;2.97;;;;;;;-0.28;100.00;100463.00;5073147;28;20036;-72
2022/03/31 01:54:06;;;;;;;3.40;2.70;;;;;;;-0.30;100.00;100450.94;5074295;28;20032;-72
2022/03/31 01:56:31;;;;;;;4.15;2.80;;;;;;;-0.30;100.00;100449.19;5055686;28;20469;-81
2022/03/31 01:58:57;;;;;;;6.85;2.90;;;;;;;-0.30;100.00;100456.16;5073644;28;20043;-72
2022/03/31 02:01:23;;;;;;;5.45;2.78;;;;;;;-0.29;100.00;100450.00;5073713;28;20036;-72
2022/03/31 02:03:48;;;;;;;5.05;2.80;;;;;;;-0.29;100.00;100452.63;5072994;28;20029;-72
2022/03/31 02:06:13;;;;;;;4.70;2.60;;;;;;;-0.26;100.00;100442.00;5055435;28;20029;-72
2022/03/31 02:08:39;;;;;;;3.85;2.70;;;;;;;-0.27;100.00;100448.16;5055914;28;20032;-74
2022/03/31 02:11:04;;;;;;;6.35;2.75;;;;;;;-0.25;100.00;100448.94;5073062;28;20024;-72
2022/03/31 02:13:30;;;;;;;5.28;2.97;;;;;;;-0.22;100.00;100451.41;5071891;28;20036;-72
2022/03/31 02:15:55;;;;;;;5.57;2.88;;;;;;;-0.19;100.00;100451.22;5073149;28;20060;-72
2022/03/31 02:18:21;;;;;;;6.25;3.15;;;;;;;-0.17;100.00;100441.53;5073018;28;20124;-72
2022/03/31 02:20:46;;;;;;;5.18;3.35;;;;;;;-0.14;100.00;100451.81;5073155;28;20053;-72
2022/03/31 02:23:12;;;;;;;7.20;3.53;;;;;;;-0.13;100.00;100450.91;5073064;28;20044;-72
2022/03/31 02:25:38;;;;;;;4.90;3.05;;;;;;;-0.11;100.00;100450.84;5073219;28;20029;-73
2022/03/31 02:28:04;;;;;;;5.13;3.40;;;;;;;-0.13;100.00;100450.91;5072991;28;20063;-72
2022/03/31 02:30:30;;;;;;;5.82;3.47;;;;;;;-0.13;100.00;100442.22;5055116;28;20036;-71
2022/03/31 02:32:58;;;;;;;7.75;3.70;;;;;;;-0.15;100.00;100431.84;5055098;28;20170;-72
2022/03/31 02:35:23;;;;;;;6.07;3.97;;;;;;;-0.15;100.00;100437.09;5073309;28;20040;-72
2022/03/31 02:37:49;;;;;;;6.97;4.38;;;;;;;-0.16;100.00;100434.50;5072780;28;20372;-72
2022/03/31 02:40:14;;;;;;;6.80;4.20;;;;;;;-0.17;100.00;100438.91;5054886;28;20075;-72
2022/03/31 02:42:40;;;;;;;6.80;3.95;;;;;;;-0.19;100.00;100432.94;5072966;28;20120;-72
2022/03/31 02:45:06;;;;;;;7.25;4.20;;;;;;;-0.22;100.00;100438.31;5054424;28;20033;-72
2022/03/31 02:47:34;;;;;;;6.35;4.47;;;;;;;-0.26;100.00;100421.94;5072701;28;20075;-72
2022/03/31 02:50:00;;;;;;;6.80;4.38;;;;;;;-0.28;100.00;100425.56;5072750;28;20484;-71
2022/03/31 02:52:26;;;;;;;7.65;4.50;;;;;;;-0.30;100.00;100417.81;5072277;28;20028;-72
2022/03/31 02:57:35;;;;;;;7.32;4.60;;;;;;;-0.29;100.00;100416.03;5057743;28;20059;-71
2022/03/31 03:00:01;;;;;;;7.10;4.90;;;;;;;-0.30;100.00;100406.47;5072709;28;20449;-71
2022/03/31 03:02:26;;;;;;;8.02;4.82;;;;;;;-0.29;100.00;100408.19;5054877;28;20028;-72
2022/03/31 03:04:51;;;;;;;7.57;4.95;;;;;;;-0.29;100.00;100400.34;5072525;28;20523;-72
2022/03/31 03:07:18;;;;;;;9.73;5.00;;;;;;;-0.28;100.00;100402.03;5072651;28;20036;-72
2022/03/31 03:09:43;;;;;;;6.57;4.75;;;;;;;-0.25;100.00;100404.50;5072552;28;20029;-72
2022/03/31 03:12:10;;;;;;;6.68;4.75;;;;;;;-0.22;100.00;100399.94;5072466;28;20348;-72
2022/03/31 03:14:35;;;;;;;8.23;4.78;;;;;;;-0.20;100.00;100398.06;5072781;28;20107;-72
2022/03/31 03:17:00;;;;;;;7.60;4.50;;;;;;;-0.17;100.00;100394.44;5072344;28;20116;-72
2022/03/31 03:19:26;;;;;;;10.90;4.45;;;;;;;-0.14;100.00;100399.53;5072816;28;20031;-72
2022/03/31 03:21:51;;;;;;;6.18;4.50;;;;;;;-0.09;100.00;100396.66;5072709;28;20465;-72
2022/03/31 03:24:16;;;;;;;6.30;4.28;;;;;;;-0.06;100.00;100399.97;5055337;28;20437;-71
2022/03/31 03:26:42;;;;;;;6.78;4.50;;;;;;;-0.04;100.00;100394.66;5076339;28;20052;-73
2022/03/31 03:29:07;;;;;;;8.05;4.43;;;;;;;-0.02;100.00;100400.63;5075990;28;20040;-72
2022/03/31 03:31:33;;;;;;;5.68;4.13;;;;;;;-0.02;100.00;100403.25;5076174;28;20115;-72
2022/03/31 03:33:58;;;;;;;7.25;4.30;;;;;;;-0.02;100.00;100398.03;5058272;28;20037;-72
2022/03/31 03:36:23;;;;;;;5.93;4.43;;;;;;;-0.02;100.00;100404.09;5058448;28;20039;-72
2022/03/31 03:38:49;;;;;;;5.97;3.80;;;;;;;0.01;100.00;100400.47;5058290;28;20029;-72
2022/03/31 03:41:15;;;;;;;5.97;4.18;;;;;;;0.04;100.00;100395.06;5076056;28;20062;-71
2022/03/31 03:43:42;;;;;;;5.57;4.32;;;;;;;0.05;100.00;100401.19;5076021;28;20036;-72
2022/03/31 03:46:07;;;;;;;5.03;3.72;;;;;;;0.04;100.00;100392.47;5076083;28;20025;-74
2022/03/31 03:48:33;;;;;;;5.72;3.80;;;;;;;0.03;100.00;100390.78;5076019;28;20025;-72
2022/03/31 03:50:59;;;;;;;6.60;3.75;;;;;;;0.05;100.00;100393.31;5075850;28;20056;-72
2022/03/31 03:53:25;;;;;;;6.78;3.53;;;;;;;0.06;100.00;100393.25;5076073;28;20488;-72
2022/03/31 03:55:51;;;;;;;6.38;3.90;;;;;;;0.05;100.00;100390.72;5075640;28;20102;-72
2022/03/31 03:58:16;;;;;;;6.50;4.63;;;;;;;0.05;100.00;100390.72;5075490;28;20069;-72
2022/03/31 04:00:41;;;;;;;6.15;3.92;;;;;;;0.06;100.00;100390.63;5057933;28;20060;-72
2022/03/31 04:03:07;;;;;;;6.50;4.25;;;;;;;0.08;100.00;100394.00;5075558;28;20116;-72
2022/03/31 04:05:33;;;;;;;6.97;4.03;;;;;;;0.11;100.00;100393.00;5076195;28;20044;-72
2022/03/31 04:07:58;;;;;;;7.32;4.10;;;;;;;0.13;100.00;100384.09;5075541;28;20029;-72
2022/03/31 04:10:24;;;;;;;10.52;4.65;;;;;;;0.15;100.00;100384.88;5075329;28;20495;-72
2022/03/31 04:12:50;;;;;;;7.32;4.28;;;;;;;0.17;100.00;100393.50;5057272;28;20504;-72
2022/03/31 04:15:15;;;;;;;8.30;4.22;;;;;;;0.17;100.00;100390.03;5075399;28;20036;-72
2022/03/31 04:17:42;;;;;;;6.60;4.22;;;;;;;0.19;100.00;100387.34;5075372;28;20078;-73
2022/03/31 04:20:08;;;;;;;9.25;4.43;;;;;;;0.19;100.00;100389.94;5075853;28;20092;-72
2022/03/31 04:22:37;;;;;;;8.02;4.90;;;;;;;0.20;100.00;100386.41;5075360;28;20495;-73
2022/03/31 04:25:07;;;;;;;8.60;4.80;;;;;;;0.19;100.00;100376.88;5075298;28;20029;-72
2022/03/31 04:27:34;;;;;;;9.52;4.75;;;;;;;0.18;100.00;100386.50;5075255;28;20029;-72
2022/03/31 04:30:00;;;;;;;12.02;5.18;;;;;;;0.19;100.00;100382.94;5075010;28;20124;-72
2022/03/31 04:32:25;;;;;;;12.80;5.50;;;;;;;0.19;100.00;100385.56;5075173;28;20113;-72
2022/03/31 04:34:51;;;;;;;7.05;4.93;;;;;;;0.19;100.00;100380.31;5075116;28;20033;-73
2022/03/31 04:37:16;;;;;;;12.20;5.57;;;;;;;0.20;100.00;100378.56;5073717;28;20092;-72
2022/03/31 04:39:42;;;;;;;11.35;5.80;;;;;;;0.20;100.00;100384.63;5075055;28;20119;-72
2022/03/31 04:42:09;;;;;;;11.70;6.50;;;;;;;0.19;100.00;100367.25;5057305;28;20041;-71
2022/03/31 04:44:35;;;;;;;9.10;5.55;;;;;;;0.17;100.00;100364.72;5074902;28;20353;-72
2022/03/31 04:47:00;;;;;;;13.65;6.55;;;;;;;0.17;100.00;100367.31;5074775;28;20035;-72
2022/03/31 04:49:25;;;;;;;12.45;5.97;;;;;;;0.16;100.00;100370.03;5074676;28;20040;-72
2022/03/31 04:51:51;;;;;;;15.63;6.35;;;;;;;0.14;100.00;100380.56;5074645;28;20076;-78
2022/03/31 04:54:16;;;;;;;11.68;5.97;;;;;;;0.13;100.00;100372.81;5075094;28;20056;-71
2022/03/31 04:56:41;;;;;;;10.55;6.93;;;;;;;0.13;100.00;100376.25;5075184;28;20033;-71
2022/03/31 04:59:07;;;;;;;12.65;6.47;;;;;;;0.12;100.00;100374.59;5074802;28;20066;-72
2022/03/31 05:01:32;;;;;;;11.57;6.22;;;;;;;0.11;100.00;100379.91;5074891;28;20410;-72
2022/03/31 05:03:58;;;;;;;14.27;6.57;;;;;;;0.09;100.00;100372.16;5074401;28;20056;-72
2022/03/31 05:06:23;;;;;;;13.13;6.25;;;;;;;0.09;100.00;100369.53;5074446;28;20037;-71
2022/03/31 05:08:49;;;;;;;11.55;6.78;;;;;;;0.07;100.00;100366.13;5074130;28;20052;-71
2022/03/31 05:11:14;;;;;;;11.52;7.03;;;;;;;0.07;100.00;100367.91;5074725;28;20379;-73
2022/03/31 05:13:39;;;;;;;13.52;7.50;;;;;;;0.06;100.00;100379.31;5074706;28;20029;-73
2022/03/31 05:16:05;;;;;;;11.98;7.72;;;;;;;0.05;100.00;100367.16;5074024;28;20055;-73
2022/03/31 05:18:31;;;;;;;13.10;7.38;;;;;;;0.06;100.00;100368.84;5074019;28;20388;-72
2022/03/31 05:20:57;;;;;;;15.30;7.80;;;;;;;0.03;100.00;100362.03;5073670;28;20418;-74
2022/03/31 05:23:22;;;;;;;17.52;8.32;;;;;;;0.03;100.00;100362.03;5056003;28;20538;-72
2022/03/31 05:25:48;;;;;;;19.40;8.55;;;;;;;0.03;100.00;100377.72;5074609;28;20485;-73
2022/03/31 05:28:14;;;;;;;16.95;8.50;;;;;;;0.03;100.00;100376.84;5073989;28;20044;-74
2022/03/31 05:30:39;;;;;;;15.18;8.63;;;;;;;0.01;100.00;100376.09;5074670;28;20047;-73
2022/03/31 05:33:07;;;;;;;15.25;8.38;;;;;;;-0.01;100.00;100373.56;5073789;28;20028;-74
2022/03/31 05:35:32;;;;;;;16.42;8.48;;;;;;;-0.04;100.00;100376.34;5074176;28;20052;-72
2022/03/31 05:37:58;;;;;;;21.58;8.73;;;;;;;-0.09;100.00;100368.75;5074318;28;20437;-78
2022/03/31 05:40:23;;;;;;;19.80;8.48;;;;;;;-0.15;100.00;100363.00;5073942;28;20388;-72
2022/03/31 05:42:49;;;;;;;14.55;8.45;;;;;;;-0.22;100.00;100359.88;5073455;28;20115;-72
2022/03/31 05:45:15;;;;;;;19.95;8.70;;;;;;;-0.27;100.00;100356.63;5073165;28;20099;-73
2022/03/31 05:47:42;;;;;;;25.15;9.63;;;;;;;-0.30;100.00;100367.25;5072803;28;20028;-71
2022/03/31 05:50:09;;;;;;;21.08;9.45;;;;;;;-0.32;100.00;100354.28;5073364;28;20032;-72
2022/03/31 05:52:39;;;;;;;25.35;8.85;;;;;;;-0.34;100.00;100353.53;5073419;28;20024;-72
2022/03/31 05:55:06;;;;;;;19.50;9.80;;;;;;;-0.36;100.00;100356.22;5072970;28;20064;-71
2022/03/31 05:57:36;;;;;;;21.02;10.13;;;;;;;-0.38;100.00;100355.44;5073829;28;20041;-72
2022/03/31 06:00:08;;;;;;;21.98;10.40;;;;;;;-0.38;100.00;100352.00;5073193;28;20035;-72
2022/03/31 06:02:33;;;;;;;16.27;8.60;;;;;;;-0.39;100.00;100352.91;5073507;28;20037;-71
2022/03/31 06:04:58;;;;;;;16.00;7.90;;;;;;;-0.40;100.00;100346.84;5055270;28;20040;-79
2022/03/31 06:07:24;;;;;;;19.63;7.72;;;;;;;-0.40;100.00;100352.06;5072967;28;20028;-71
2022/03/31 06:09:50;;;;;;;15.85;8.05;;;;;;;-0.39;100.00;100353.78;5072814;28;20388;-72
2022/03/31 06:12:15;;;;;;;19.65;9.20;;;;;;;-0.39;100.00;100350.28;5073147;28;20032;-71
2022/03/31 06:14:41;;;;;;;18.92;8.23;;;;;;;-0.38;100.00;100354.59;5054985;28;20481;-72
2022/03/31 06:17:06;;;;;;;22.48;9.73;;;;;;;-0.37;100.00;100353.69;5072639;28;20044;-72
2022/03/31 06:19:32;;;;;;;29.80;9.57;;;;;;;-0.36;100.00;100353.59;5073300;28;20141;-72
2022/03/31 06:21:57;;;;;;;18.23;8.65;;;;;;;-0.31;100.00;100358.59;5072727;28;20049;-74
2022/03/31 06:24:23;;;;;;;23.10;8.20;;;;;;;-0.27;100.00;100354.88;5072774;28;20037;-73
2022/03/31 06:26:48;;;;;;;13.85;7.82;;;;;;;-0.24;100.00;100357.34;5073370;28;20039;-72
2022/03/31 06:29:14;;;;;;;18.70;7.82;;;;;;;-0.21;100.00;100358.94;5073344;28;20032;-74
2022/03/31 06:31:40;;;;;;;16.17;7.07;;;;;;;-0.19;100.00;100357.09;5072853;28;20059;-71
2022/03/31 06:34:06;;;;;;;15.02;6.45;;;;;;;-0.17;100.00;100362.25;5072860;28;20034;-72
2022/03/31 06:36:31;;;;;;;12.93;6.22;;;;;;;-0.17;100.00;100362.25;5055454;28;20038;-71
2022/03/31 06:38:57;;;;;;;15.20;7.13;;;;;;;-0.15;100.00;100360.38;5072966;28;20477;-73
2022/03/31 06:41:23;;;;;;;13.88;6.60;;;;;;;-0.12;100.00;100363.69;5072883;28;20469;-72
2022/03/31 06:43:49;;;;;;;17.08;8.07;;;;;;;-0.06;100.00;100371.19;5055565;28;20151;-72
2022/03/31 06:46:15;;;;;;;16.83;7.00;;;;;;;0.03;100.00;100376.84;5072731;28;20040;-71
2022/03/31 06:48:42;;;;;;;12.77;7.18;;;;;;;0.13;100.00;100367.56;5073015;28;20029;-73
2022/03/31 06:51:09;;;;;;;13.75;6.70;;;;;;;0.26;100.00;100375.63;5072566;28;20029;-73
2022/03/31 06:53:39;;;;;;;15.18;6.95;;;;;;;0.37;100.00;100365.38;5072774;28;20037;-72
2022/03/31 06:56:06;;;;;;;17.33;7.03;;;;;;;0.51;100.00;100364.63;5073029;28;20048;-84
2022/03/31 06:58:31;;;;;;;22.17;6.82;;;;;;;0.64;100.00;100355.16;5074026;28;20024;-74
2022/03/31 07:00:57;;;;;;;14.70;6.90;;;;;;;0.81;100.00;100346.31;5079119;28;20376;-72
2022/03/31 07:03:23;;;;;;;13.90;6.05;;;;;;;0.98;100.00;100354.97;5079260;28;20086;-72
2022/03/31 07:05:48;;;;;;;12.07;5.85;;;;;;;1.08;100.00;100350.88;5079338;28;20380;-72
2022/03/31 07:08:14;;;;;;;12.45;5.40;;;;;;;1.25;100.00;100364.78;5079261;28;20376;-72
2022/03/31 07:10:39;;;;;;;9.00;5.05;;;;;;;1.40;100.00;100364.72;5079107;28;20362;-72
2022/03/31 07:13:05;;;;;;;11.68;5.30;;;;;;;1.64;100.00;100372.00;5061365;28;20066;-73
2022/03/31 07:15:31;;;;;;;9.10;4.38;;;;;;;1.78;100.00;100360.69;5078929;28;20437;-73
2022/03/31 07:17:56;;;;;;;10.45;5.00;;;;;;;1.92;100.00;100362.47;5079000;28;20040;-72
2022/03/31 07:20:23;;;;;;;8.15;4.60;;;;;;;2.12;100.00;100358.59;5079291;28;20384;-73
2022/03/31 07:22:48;;;;;;;7.22;4.43;;;;;;;2.26;100.00;100357.72;5079863;28;20365;-72
2022/03/31 07:25:16;;;;;;;6.03;3.83;;;;;;;2.39;100.00;100357.78;5079176;28;20083;-73
2022/03/31 07:27:42;;;;;;;5.28;3.92;;;;;;;2.53;100.00;100367.41;5079340;28;20032;-72
2022/03/31 07:30:07;;;;;;;8.32;3.75;;;;;;;2.62;100.00;100364.19;5061046;28;20035;-72
2022/03/31 07:32:33;;;;;;;10.52;3.90;;;;;;;2.65;100.00;100366.59;5079225;28;20059;-72
2022/03/31 07:35:00;;;;;;;7.07;3.88;;;;;;;2.73;100.00;100361.72;5079335;28;20422;-75
2022/03/31 07:37:25;;;;;;;4.90;3.15;;;;;;;2.60;100.00;100356.41;5079012;28;20115;-73
2022/03/31 07:39:51;;;;;;;4.70;3.13;;;;;;;2.51;98.62;100361.41;5079447;28;20052;-72
2022/03/31 07:42:16;;;;;;;7.68;4.47;;;;;;;2.52;98.03;100357.84;5079142;28;20039;-73
2022/03/31 07:44:42;;;;;;;7.85;3.75;;;;;;;2.57;98.16;100356.59;5078550;28;20043;-73
2022/03/31 07:47:08;;;;;;;6.75;3.67;;;;;;;2.71;98.74;100352.25;5060904;28;20039;-72
2022/03/31 07:49:33;;;;;;;10.40;4.65;;;;;;;2.87;98.26;100349.44;5078823;28;20040;-74
2022/03/31 07:51:59;;;;;;;9.43;4.90;;;;;;;2.97;97.10;100351.38;5079156;28;20430;-72
2022/03/31 07:54:24;;;;;;;7.93;5.10;;;;;;;3.05;95.70;100356.09;5078815;28;20115;-72
2022/03/31 07:56:50;;;;;;;8.15;4.93;;;;;;;3.12;95.50;100352.13;5078825;28;20377;-70
2022/03/31 07:59:21;;;;;;;6.15;4.45;;;;;;;3.18;94.91;100353.50;5079097;28;20028;-71
2022/03/31 08:01:47;;;;;;;7.35;4.20;;;;;;;3.16;93.22;100347.50;5079304;28;20499;-71
2022/03/31 08:04:13;;;;;;;6.05;3.60;;;;;;;3.22;92.50;100343.63;5060761;28;20037;-81
2022/03/31 08:06:39;;;;;;;5.68;3.67;;;;;;;3.31;92.10;100342.97;5078672;28;20039;-71
2022/03/31 08:09:05;;;;;;;4.97;3.10;;;;;;;3.52;93.03;100341.53;5078806;28;20116;-72
2022/03/31 08:11:30;;;;;;;5.05;2.75;;;;;;;3.62;90.55;100349.59;5076792;28;20094;-72
2022/03/31 08:13:56;;;;;;;2.83;2.45;;;;;;;3.65;89.03;100348.56;5075862;28;20090;-73
2022/03/31 08:16:21;;;;;;;7.40;2.85;;;;;;;3.79;90.08;100344.97;5075352;28;20101;-72
2022/03/31 08:18:47;;;;;;;3.45;2.60;;;;;;;3.93;89.11;100344.00;5075906;28;20437;-72
2022/03/31 08:21:13;;;;;;;3.42;2.40;;;;;;;4.09;89.17;100344.59;5075195;28;20082;-71
2022/03/31 08:23:38;;;;;;;4.50;3.20;;;;;;;4.09;87.57;100338.47;5058056;28;20368;-73
2022/03/31 08:26:04;;;;;;;3.58;3.10;;;;;;;4.09;86.32;100339.34;5057993;28;20040;-73
2022/03/31 08:28:31;;;;;;;3.78;3.20;;;;;;;4.03;86.63;100339.75;5075419;28;20120;-71
2022/03/31 08:30:57;;;;;;;7.97;3.03;;;;;;;4.02;86.13;100338.91;5057840;28;20025;-72
2022/03/31 08:33:22;;;;;;;6.45;3.20;;;;;;;4.18;86.61;100345.72;5075364;28;20131;-73
2022/03/31 08:35:48;;;;;;;3.75;2.60;;;;;;;4.19;85.17;100340.34;5075730;28;20040;-72
2022/03/31 08:38:13;;;;;;;5.88;3.63;;;;;;;4.18;85.60;100351.84;5057294;28;20047;-72
2022/03/31 08:40:39;;;;;;;7.47;2.80;;;;;;;4.23;85.97;100352.34;5075180;28;20043;-73
2022/03/31 08:43:05;;;;;;;4.50;2.20;;;;;;;4.06;83.96;100352.69;5075490;28;20032;-72
2022/03/31 08:45:35;;;;;;;7.82;4.10;;;;;;;4.05;84.82;100348.41;5075177;28;20029;-72
2022/03/31 08:48:01;;;;;;;9.98;7.63;;;;;;;4.02;85.25;100338.91;5056705;28;20047;-72
2022/03/31 08:50:27;;;;;;;17.92;10.85;;;;;;;4.03;85.58;100348.50;5075595;28;20032;-72
2022/03/31 08:52:53;;;;;;;5.35;3.50;;;;;;;3.79;84.96;100344.97;5075117;28;20107;-72
2022/03/31 08:55:19;;;;;;;3.97;2.60;;;;;;;3.73;86.07;100334.88;5075145;28;20419;-81
2022/03/31 08:57:50;;;;;;;4.13;3.33;;;;;;;3.74;87.58;100336.56;5074822;28;20037;-73
2022/03/31 09:00:18;;;;;;;4.32;3.35;;;;;;;3.68;86.65;100346.53;5075280;28;20024;-72
2022/03/31 09:02:57;;;;;;;4.30;2.80;;;;;;;3.60;87.00;100338.34;5074946;28;20029;-73
2022/03/31 09:05:22;;;;;;;6.88;2.88;;;;;;;3.57;86.98;100340.34;5075262;28;20028;-71
2022/03/31 09:07:52;;;;;;;4.78;3.05;;;;;;;3.44;87.26;100341.19;5074520;28;20028;-70
2022/03/31 09:10:47;;;;;;;3.10;2.75;;;;;;;3.36;88.25;100343.53;5074775;28;20103;-70
2022/03/31 09:13:23;;;;;;;3.25;2.38;;;;;;;3.33;88.55;100343.75;5071466;28;20076;-70
2022/03/31 09:15:50;;;;;;;2.95;2.63;;;;;;;3.29;88.95;100347.50;5074199;28;20033;-69
2022/03/31 09:18:20;;;;;;;2.83;2.63;;;;;;;3.30;89.20;100349.19;5074145;28;20031;-73
2022/03/31 09:20:47;;;;;;;3.75;2.63;;;;;;;3.25;88.53;100346.03;5073614;28;20132;-71
2022/03/31 09:23:20;;;;;;;2.72;2.50;;;;;;;3.33;89.60;100344.56;5073522;28;20107;-70
2022/03/31 09:25:46;;;;;;;2.50;2.30;;;;;;;3.44;89.26;100348.25;5073926;28;20437;-72
2022/03/31 09:28:19;;;;;;;5.13;2.88;;;;;;;3.46;87.58;100349.84;5073631;28;20032;-71
2022/03/31 09:30:53;;;;;;;2.92;2.08;;;;;;;3.56;87.94;100350.03;5073604;28;20031;-73
2022/03/31 09:33:33;;;;;;;1.85;1.75;;;;;;;3.74;87.12;100352.34;5073913;28;20067;-71
2022/03/31 09:36:12;;;;;;;4.05;2.40;;;;;;;4.21;86.72;100349.00;5073744;28;20052;-72
2022/03/31 09:38:39;;;;;;;2.53;2.33;;;;;;;4.83;84.45;100336.59;5056263;28;20028;-71
2022/03/31 09:41:17;;;;;;;2.00;1.90;;;;;;;5.34;81.66;100335.41;5073702;28;20127;-72
2022/03/31 09:43:44;;;;;;;2.83;1.80;;;;;;;5.62;79.16;100334.09;5073867;28;20453;-70
2022/03/31 09:46:30;;;;;;;3.75;1.95;;;;;;;5.74;75.61;100339.41;5073230;28;20568;-70
2022/03/31 09:48:56;;;;;;;4.25;3.40;;;;;;;5.77;75.28;100334.72;5073463;28;20028;-73
2022/03/31 09:51:24;;;;;;;3.00;2.70;;;;;;;6.23;75.53;100332.06;5073029;28;20058;-72
2022/03/31 09:53:51;;;;;;;2.53;2.30;;;;;;;6.28;71.43;100333.34;5073042;28;20087;-72
2022/03/31 09:56:19;;;;;;;2.42;2.22;;;;;;;6.32;70.15;100329.50;5073118;28;20032;-72
2022/03/31 09:58:46;;;;;;;2.00;1.90;;;;;;;6.12;70.63;100332.91;5073234;28;20031;-72
2022/03/31 10:01:14;;;;;;;2.00;1.90;;;;;;;7.25;70.71;100329.81;5073192;28;20040;-73
2022/03/31 10:03:40;;;;;;;2.13;1.98;;;;;;;7.91;64.00;100339.19;5073140;28;20086;-72
2022/03/31 10:06:06;;;;;;;4.43;1.85;;;;;;;7.76;64.15;100331.63;5073065;28;20326;-72
2022/03/31 10:08:34;;;;;;;2.10;1.90;;;;;;;7.54;63.99;100327.34;5055144;28;20033;-73
2022/03/31 10:11:00;;;;;;;1.90;1.80;;;;;;;7.32;65.12;100328.34;5073146;28;20044;-72
2022/03/31 10:13:36;;;;;;;1.83;1.73;;;;;;;7.16;64.63;100330.59;5073323;28;20041;-72
2022/03/31 10:16:09;;;;;;;1.98;1.88;;;;;;;6.97;66.33;100321.59;5055443;28;20077;-71
2022/03/31 10:18:36;;;;;;;2.00;1.90;;;;;;;8.70;61.98;100313.72;5073164;28;20055;-72
2022/03/31 10:21:02;;;;;;;1.90;1.80;;;;;;;10.92;54.87;100306.69;5072784;28;20510;-72
2022/03/31 10:26:27;;;;;;;1.95;1.50;;;;;;;13.08;47.18;100307.34;5073448;28;20070;-72
2022/03/31 10:28:56;;;;;;;;;;;;;;;12.38;44.61;100300.63;5072681;28;20406;-72
2022/03/31 10:31:33;;;;;;;1.60;1.50;;;;;;;13.39;45.21;100298.59;5072266;28;20424;-71
2022/03/31 10:33:59;;;;;;;2.78;1.58;;;;;;;14.03;45.41;100292.38;5071270;28;20473;-72
2022/03/31 10:36:38;;;;;;;1.50;1.40;;;;;;;14.17;42.21;100296.16;5072855;28;20073;-73
2022/03/31 10:39:14;;;;;;;1.70;1.60;;;;;;;13.57;45.40;100293.91;5072488;28;20060;-72
2022/03/31 10:41:42;;;;;;;1.65;1.55;;;;;;;12.82;48.61;100292.34;5072417;28;20035;-72
2022/03/31 10:44:14;;;;;;;2.72;1.70;;;;;;;12.45;47.13;100292.78;5054564;28;20515;-71
2022/03/31 10:46:43;;;;;;;1.90;1.80;;;;;;;11.39;49.78;100288.72;5071772;28;20033;-71
2022/03/31 10:49:12;;;;;;;2.55;2.33;;;;;;;10.05;52.14;100292.22;5071773;28;20174;-72
2022/03/31 10:51:41;;;;;;;1.67;1.58;;;;;;;9.63;51.49;100290.88;5072181;28;20040;-71
2022/03/31 10:54:12;;;;;;;2.25;1.90;;;;;;;8.76;55.94;100286.63;5071899;28;20114;-71
2022/03/31 10:56:40;;;;;;;2.47;2.20;;;;;;;8.40;57.85;100295.09;5072876;28;20035;-71
2022/03/31 10:59:06;;;;;;;2.20;2.00;;;;;;;7.88;58.17;100297.94;5072065;28;20044;-71
2022/03/31 11:01:37;;;;;;;2.10;1.90;;;;;;;7.63;60.55;100288.66;5072164;28;20123;-70
2022/03/31 11:04:10;;;;;;;2.17;1.98;;;;;;;7.11;61.99;100283.38;5072656;28;20520;-72
2022/03/31 11:06:56;;;;;;;2.17;2.00;;;;;;;6.85;63.09;100283.78;5072295;28;20025;-72
2022/03/31 11:09:26;;;;;;;2.10;1.90;;;;;;;6.85;62.93;100275.84;5071700;28;20052;-71
2022/03/31 11:11:55;;;;;;;2.70;2.10;;;;;;;6.70;64.28;100287.69;5072096;28;20036;-71
2022/03/31 11:14:22;;;;;;;1.90;1.80;;;;;;;6.49;64.88;100282.38;5073288;28;20032;-72
2022/03/31 11:16:47;;;;;;;2.22;2.03;;;;;;;6.41;65.71;100277.72;5072135;28;20461;-72
2022/03/31 11:19:13;;;;;;;2.13;1.88;;;;;;;6.47;66.41;100279.03;5072308;28;20036;-71
2022/03/31 11:21:42;;;;;;;3.47;2.28;;;;;;;6.58;66.21;100276.31;5072534;28;20057;-73
2022/03/31 11:24:09;;;;;;;3.10;2.40;;;;;;;6.77;68.06;100265.06;5072651;28;20435;-72
2022/03/31 11:26:40;;;;;;;2.95;2.10;;;;;;;6.93;65.48;100269.91;5072699;28;20040;-72